This is the latest recevied weather packets stored in our database for station/object E27EKO-13. If no packets are shown the sender has not sent any weather packets the latest 10 day(s).
| Time | Temp. | Humidity | Pressure | Rain* | Wind** | Luminosity | Snow |
|---|---|---|---|---|---|---|---|
| 1777091483 | 40.56° C | 46% | 1010 hPa | - | - | 0 W/m² | - |
| 1777091161 | 41.11° C | 47% | 1010 hPa | - | - | 0 W/m² | - |
| 1777090839 | 40.56° C | 47% | 1010 hPa | - | - | 0 W/m² | - |
| 1777090517 | 40.56° C | 47% | 1010 hPa | - | - | 0 W/m² | - |
| 1777090275 | 40.56° C | 48% | 1010 hPa | - | - | 0 W/m² | - |
| 1777089953 | 40.56° C | 48% | 1010 hPa | - | - | 0 W/m² | - |
| 1777089631 | 40.56° C | 47% | 1010 hPa | - | - | 0 W/m² | - |
| 1777089309 | 41.11° C | 48% | 1010 hPa | - | - | 0 W/m² | - |
| 1777088987 | 41.11° C | 47% | 1010 hPa | - | - | 0 W/m² | - |
| 1777088665 | 41.11° C | 47% | 1011 hPa | - | - | 0 W/m² | - |
| 1777088415 | 41.11° C | 47% | 1011 hPa | - | - | 0 W/m² | - |
| 1777088293 | 41.11° C | 47% | 1010 hPa | - | - | 0 W/m² | - |
| 1777087971 | 40.56° C | 47% | 1011 hPa | - | - | 0 W/m² | - |
| 1777087649 | 40.56° C | 48% | 1011 hPa | - | - | 0 W/m² | - |
| 1777087327 | 40.56° C | 46% | 1011 hPa | - | - | 0 W/m² | - |
| 1777087005 | 40.56° C | 46% | 1011 hPa | - | - | 0 W/m² | - |
| 1777086683 | 40.56° C | 46% | 1011 hPa | - | - | 0 W/m² | - |
| 1777086362 | 40° C | 48% | 1011 hPa | - | - | 0 W/m² | - |
| 1777086039 | 39.44° C | 49% | 1011 hPa | - | - | 0 W/m² | - |
| 1777085717 | 38.33° C | 54% | 1011 hPa | - | - | 0 W/m² | - |
| 1777085395 | 38.33° C | 56% | 1011 hPa | - | - | 0 W/m² | - |
| 1777085181 | 36.67° C | 59% | 1011 hPa | - | - | 0 W/m² | - |
| 1777084859 | 36.67° C | 59% | 1011 hPa | - | - | 0 W/m² | - |
| 1777084536 | 37.22° C | 59% | 1011 hPa | - | - | 0 W/m² | - |
| 1777074530 | 32.78° C | 87% | 1009 hPa | - | - | 0 W/m² | - |
* Rain since midnight (hover to see other rain measurements)
** Current wind speed in m/s (hover to see current wind gust speed)